Time;durP1;ratioP1;P1;durP2;ratioP2;P2;SDS_P1;SDS_P2;PMS_P1;PMS_P2;Temp;Humidity;BMP_temperature;BMP_pressure;BME280_temperature;BME280_humidity;BME280_pressure;Samples;Min_cycle;Max_cycle;Signal;HPM_P1;HPM_P2
2022/03/03 00:01:26;;;;;;;13.90;8.43;;;;;;;1.23;87.73;100478.66;5009307;28;20069;-73
2022/03/03 00:03:52;;;;;;;11.02;7.25;;;;;;;1.40;87.84;100495.69;5008379;28;20038;-73
2022/03/03 00:06:17;;;;;;;16.20;13.02;;;;;;;1.26;87.73;100486.53;5005427;28;20038;-73
2022/03/03 00:08:43;;;;;;;11.63;8.70;;;;;;;1.21;88.63;100482.88;5010420;28;20351;-73
2022/03/03 00:11:08;;;;;;;14.27;9.95;;;;;;;1.33;88.30;100485.06;5009755;28;20038;-72
2022/03/03 00:13:34;;;;;;;15.15;10.10;;;;;;;1.44;88.42;100484.66;5006936;28;20279;-73
2022/03/03 00:16:03;;;;;;;13.27;8.68;;;;;;;1.46;88.50;100482.13;5011827;28;20045;-73
2022/03/03 00:18:29;;;;;;;18.25;15.05;;;;;;;1.45;88.52;100488.09;5039384;28;20362;-72
2022/03/03 00:20:54;;;;;;;16.27;11.95;;;;;;;1.47;88.20;100466.69;5009685;28;20033;-73
2022/03/03 00:26:32;;;;;;;25.20;17.48;;;;;;;1.27;88.63;100459.88;5004309;28;20046;-73
2022/03/03 00:28:57;;;;;;;24.33;17.38;;;;;;;1.36;88.61;100470.56;5030855;28;20497;-74
2022/03/03 00:31:23;;;;;;;24.23;19.90;;;;;;;1.36;88.58;100465.41;5011827;28;20041;-73
2022/03/03 00:33:49;;;;;;;30.95;21.02;;;;;;;1.44;88.48;100469.13;5007067;28;20041;-73
2022/03/03 00:39:55;;;;;;;23.40;16.42;;;;;;;1.43;88.07;100458.75;5009093;28;20048;-73
2022/03/03 00:42:21;;;;;;;31.70;25.08;;;;;;;1.58;87.57;100459.31;5038367;28;20029;-73
2022/03/03 00:44:47;;;;;;;28.15;21.17;;;;;;;1.53;87.93;100462.56;5001363;28;20046;-73
2022/03/03 00:47:12;;;;;;;21.35;14.38;;;;;;;1.63;87.46;100459.47;5003955;28;20430;-73
2022/03/03 00:49:37;;;;;;;17.25;12.98;;;;;;;1.65;87.19;100463.00;5008359;28;20034;-73
2022/03/03 00:52:03;;;;;;;25.95;21.38;;;;;;;1.68;87.12;100455.34;5002971;28;20038;-73
2022/03/03 00:54:29;;;;;;;21.33;15.18;;;;;;;1.66;87.40;100452.72;4993148;28;20049;-73
2022/03/03 00:56:56;;;;;;;20.35;14.27;;;;;;;1.78;87.21;100441.94;5007454;28;20111;-73
2022/03/03 00:59:22;;;;;;;19.42;14.38;;;;;;;1.79;86.63;100448.00;5008422;28;20125;-73
2022/03/03 01:01:47;;;;;;;22.20;15.45;;;;;;;1.60;87.01;100425.75;5001976;28;20550;-73
2022/03/03 01:04:13;;;;;;;14.80;9.93;;;;;;;1.68;86.87;100432.06;5007723;28;20386;-73
2022/03/03 01:06:39;;;;;;;11.80;8.85;;;;;;;1.76;86.46;100443.59;5007396;28;20044;-74
2022/03/03 01:09:05;;;;;;;14.45;9.05;;;;;;;1.87;85.97;100424.16;5009769;28;20038;-73
2022/03/03 01:11:30;;;;;;;16.38;11.70;;;;;;;1.96;85.94;100431.34;4988030;28;20049;-73
2022/03/03 01:13:56;;;;;;;15.20;10.35;;;;;;;2.02;85.55;100430.69;4992568;28;20041;-73
2022/03/03 01:16:21;;;;;;;13.20;10.10;;;;;;;1.52;86.22;100427.16;5000500;28;20104;-73
2022/03/03 01:18:48;;;;;;;13.30;8.02;;;;;;;1.63;86.57;100421.56;4988490;28;20976;-72
2022/03/03 01:21:13;;;;;;;12.18;10.10;;;;;;;1.65;86.23;100425.09;4990450;28;20034;-73
2022/03/03 01:23:39;;;;;;;10.45;8.68;;;;;;;1.25;86.67;100409.81;4997824;28;20064;-73
2022/03/03 01:26:04;;;;;;;12.23;9.20;;;;;;;1.43;86.82;100415.69;5007022;28;20088;-73
2022/03/03 01:28:30;;;;;;;9.98;6.05;;;;;;;1.41;86.63;100419.91;4997464;28;20050;-73
2022/03/03 01:30:56;;;;;;;12.65;8.10;;;;;;;1.48;86.46;100408.09;4988416;28;20057;-73
2022/03/03 01:33:22;;;;;;;11.65;7.45;;;;;;;1.54;86.60;100418.63;4988971;28;20088;-73
2022/03/03 01:35:47;;;;;;;12.40;7.57;;;;;;;1.72;86.28;100413.25;4988484;28;20050;-73
2022/03/03 01:38:13;;;;;;;13.45;10.32;;;;;;;1.61;85.74;100405.09;5006301;28;20042;-73
2022/03/03 01:40:38;;;;;;;12.48;10.07;;;;;;;1.67;86.03;100405.34;4998097;28;20054;-73
2022/03/03 01:43:04;;;;;;;12.95;10.70;;;;;;;1.58;85.64;100401.53;4987432;28;20425;-72
2022/03/03 01:45:29;;;;;;;12.18;9.32;;;;;;;1.62;86.61;100408.59;4991113;28;20038;-73
2022/03/03 01:47:55;;;;;;;10.07;6.88;;;;;;;1.41;86.87;100408.69;5005132;28;20384;-73
2022/03/03 01:50:20;;;;;;;11.13;7.95;;;;;;;1.40;87.11;100401.75;4978939;28;20047;-73
2022/03/03 01:52:46;;;;;;;10.70;7.40;;;;;;;1.46;87.02;100407.16;4985828;28;20466;-73
2022/03/03 01:55:12;;;;;;;13.02;10.45;;;;;;;1.65;86.29;100401.81;4989467;28;20042;-72
2022/03/03 01:57:38;;;;;;;16.85;11.60;;;;;;;1.60;86.53;100402.47;4988388;28;20042;-73
2022/03/03 02:00:06;;;;;;;14.57;11.93;;;;;;;1.33;86.76;100390.28;4980696;28;20030;-74
2022/03/03 02:02:32;;;;;;;14.85;11.98;;;;;;;1.52;86.88;100399.59;4989465;28;20035;-73
2022/03/03 02:04:57;;;;;;;13.45;8.18;;;;;;;1.55;86.84;100396.28;4986932;28;20041;-73
2022/03/03 02:07:23;;;;;;;15.50;12.65;;;;;;;1.47;87.00;100401.13;4985301;28;20058;-73
2022/03/03 02:09:48;;;;;;;15.00;10.63;;;;;;;1.56;86.92;100401.47;4982353;28;20038;-73
2022/03/03 02:12:14;;;;;;;22.73;16.00;;;;;;;1.60;86.55;100395.59;4991980;28;20078;-73
2022/03/03 02:14:44;;;;;;;18.25;13.45;;;;;;;1.63;86.56;100395.69;4991621;28;20383;-73
2022/03/03 02:17:11;;;;;;;13.30;10.38;;;;;;;1.66;86.79;100388.06;4989134;28;20043;-74
2022/03/03 02:20:18;;;;;;;17.60;13.98;;;;;;;1.74;86.21;100398.69;4984555;28;20502;-73
2022/03/03 02:26:41;;;;;;;15.07;9.10;;;;;;;1.77;86.43;100392.72;4991991;28;20058;-73
2022/03/03 02:29:07;;;;;;;13.38;10.05;;;;;;;1.84;86.58;100374.88;4982026;28;20054;-74
2022/03/03 02:31:32;;;;;;;17.60;14.98;;;;;;;1.81;86.38;100379.97;4993216;28;20047;-73
2022/03/03 02:33:58;;;;;;;19.33;14.98;;;;;;;1.99;86.34;100376.22;4993037;28;20093;-73
2022/03/03 02:36:28;;;;;;;23.75;16.48;;;;;;;1.92;86.01;100375.16;4991284;28;20042;-73
2022/03/03 02:38:57;;;;;;;20.95;15.55;;;;;;;1.94;85.71;100375.19;4991060;28;20051;-74
2022/03/03 02:41:24;;;;;;;19.25;16.30;;;;;;;1.99;86.02;100382.31;4991855;28;20126;-74
2022/03/03 02:43:49;;;;;;;24.70;17.85;;;;;;;1.82;86.30;100378.25;4990502;28;20053;-74
2022/03/03 02:46:15;;;;;;;22.95;16.73;;;;;;;1.87;86.79;100375.00;4990066;28;20137;-73
2022/03/03 02:48:55;;;;;;;24.83;19.60;;;;;;;1.88;86.37;100383.63;4989274;28;20062;-73
2022/03/03 02:51:21;;;;;;;23.25;18.10;;;;;;;1.90;86.35;100385.44;5011783;28;20709;-73
2022/03/03 02:53:46;;;;;;;26.80;19.45;;;;;;;1.74;86.74;100371.94;4992426;28;20045;-73
2022/03/03 02:56:12;;;;;;;24.65;15.82;;;;;;;2.06;85.93;100371.34;4987091;28;20503;-73
2022/03/03 02:58:37;;;;;;;28.83;18.90;;;;;;;1.94;86.30;100373.47;4988836;28;20041;-73
2022/03/03 03:01:04;;;;;;;21.92;17.90;;;;;;;1.70;86.77;100365.75;4986129;28;20537;-75
2022/03/03 03:03:30;;;;;;;27.13;20.58;;;;;;;1.83;86.77;100373.13;4985650;28;20085;-74
2022/03/03 03:05:55;;;;;;;25.08;19.42;;;;;;;1.95;86.34;100366.63;5016207;28;20485;-74
2022/03/03 03:08:21;;;;;;;27.95;19.92;;;;;;;1.97;86.61;100367.56;4995288;28;20042;-73
2022/03/03 03:10:46;;;;;;;24.85;19.27;;;;;;;1.99;86.71;100356.44;4990535;28;20466;-74
2022/03/03 03:13:14;;;;;;;32.35;23.70;;;;;;;1.97;86.83;100362.38;4990502;28;20042;-74
2022/03/03 03:15:41;;;;;;;21.00;15.52;;;;;;;2.16;86.65;100369.94;4990280;28;20029;-74
2022/03/03 03:18:11;;;;;;;32.22;23.65;;;;;;;2.06;86.70;100357.47;4993839;28;20030;-73
2022/03/03 03:20:39;;;;;;;29.23;22.17;;;;;;;2.22;86.41;100362.34;4989255;28;20422;-74
2022/03/03 03:23:05;;;;;;;33.45;24.38;;;;;;;1.84;86.67;100364.53;4990331;28;20474;-73
2022/03/03 03:25:31;;;;;;;31.42;23.88;;;;;;;1.89;86.33;100351.75;4991948;28;20582;-74
2022/03/03 03:27:56;;;;;;;24.10;16.25;;;;;;;1.82;86.81;100345.50;4990664;28;20058;-74
2022/03/03 03:30:21;;;;;;;30.63;21.65;;;;;;;1.81;86.79;100348.03;4989808;28;20345;-74
2022/03/03 03:32:47;;;;;;;34.33;23.05;;;;;;;1.87;86.53;100346.53;4992365;28;20536;-74
2022/03/03 03:35:12;;;;;;;30.98;23.27;;;;;;;1.98;86.92;100338.25;4988901;28;20466;-74
2022/03/03 03:37:41;;;;;;;36.40;23.27;;;;;;;1.89;86.74;100350.03;4991927;28;20065;-74
2022/03/03 03:40:08;;;;;;;30.80;23.48;;;;;;;1.80;88.05;100347.16;4988224;28;20069;-73
2022/03/03 03:42:34;;;;;;;27.30;17.35;;;;;;;1.91;87.23;100342.34;4989705;28;20139;-73
2022/03/03 03:45:00;;;;;;;31.70;24.98;;;;;;;1.95;86.84;100356.28;4993523;28;20528;-73
2022/03/03 03:47:26;;;;;;;31.55;23.80;;;;;;;2.08;86.69;100343.78;4989924;28;20046;-73
2022/03/03 03:49:51;;;;;;;29.67;24.58;;;;;;;2.04;86.71;100352.28;4992684;28;20429;-73
2022/03/03 03:52:17;;;;;;;36.08;24.95;;;;;;;2.16;86.63;100338.00;4993430;28;20042;-73
2022/03/03 03:54:43;;;;;;;33.95;25.85;;;;;;;2.05;86.50;100342.81;5008721;28;20038;-72
2022/03/03 03:57:08;;;;;;;33.88;26.08;;;;;;;1.97;87.00;100333.91;5004205;28;20022;-73
2022/03/03 03:59:34;;;;;;;35.95;26.13;;;;;;;1.94;87.25;100328.63;5000331;28;20041;-73
2022/03/03 04:01:59;;;;;;;33.20;23.42;;;;;;;2.31;86.81;100341.94;4991947;28;20057;-73
2022/03/03 04:04:25;;;;;;;34.38;24.73;;;;;;;1.99;86.89;100346.06;4990160;28;20066;-73
2022/03/03 04:07:29;;;;;;;29.88;22.63;;;;;;;2.02;86.80;100348.75;4993137;28;20105;-74
2022/03/03 04:09:55;;;;;;;26.05;20.85;;;;;;;1.97;87.20;100346.88;4991135;28;20132;-73
2022/03/03 04:12:20;;;;;;;33.72;24.80;;;;;;;2.18;86.68;100339.78;4982594;28;20058;-72
2022/03/03 04:14:46;;;;;;;35.03;26.15;;;;;;;2.02;86.63;100335.81;4975128;28;20039;-72
2022/03/03 04:17:11;;;;;;;40.00;26.02;;;;;;;1.89;87.04;100334.50;4988941;28;20035;-72
2022/03/03 04:19:37;;;;;;;37.08;25.60;;;;;;;1.83;87.09;100342.09;4990365;28;20410;-72
2022/03/03 04:22:02;;;;;;;34.70;26.42;;;;;;;1.84;87.13;100333.47;4994010;28;20466;-72
2022/03/03 04:24:28;;;;;;;32.38;25.65;;;;;;;1.98;87.33;100340.84;4988813;28;20462;-72
2022/03/03 04:26:54;;;;;;;34.75;25.95;;;;;;;1.71;87.18;100333.00;5001711;28;20028;-75
2022/03/03 04:29:19;;;;;;;30.05;19.88;;;;;;;1.94;87.55;100332.09;4993685;28;20058;-73
2022/03/03 04:31:45;;;;;;;32.75;27.00;;;;;;;1.98;86.87;100333.94;4989990;28;20050;-72
2022/03/03 04:34:11;;;;;;;39.22;26.42;;;;;;;2.18;86.74;100338.88;4982991;28;20046;-72
2022/03/03 04:36:37;;;;;;;35.10;24.88;;;;;;;2.14;86.29;100322.41;4989863;28;20034;-72
2022/03/03 04:39:21;;;;;;;43.75;27.30;;;;;;;1.95;87.09;100330.41;4990767;28;20117;-74
2022/03/03 04:41:55;;;;;;;;;;;;;;;1.83;87.40;100330.88;4986878;28;20117;-72
2022/03/03 04:44:24;;;;;;;34.83;20.55;;;;;;;1.71;88.14;100322.66;4981149;28;19976;-72
2022/03/03 04:46:49;;;;;;;40.25;27.15;;;;;;;1.88;87.62;100319.84;4989351;28;20501;-71
2022/03/03 04:49:15;;;;;;;33.40;26.23;;;;;;;1.99;87.56;100325.38;4989365;28;20042;-71
2022/03/03 04:51:41;;;;;;;39.92;27.33;;;;;;;1.84;87.55;100325.72;4980945;28;20069;-72
2022/03/03 04:54:08;;;;;;;44.25;28.80;;;;;;;1.95;87.30;100318.34;4990868;28;20044;-72
2022/03/03 04:56:35;;;;;;;40.58;29.35;;;;;;;1.89;87.81;100321.56;4980067;28;20065;-72
2022/03/03 04:59:00;;;;;;;42.67;28.48;;;;;;;1.72;87.91;100317.56;4987659;28;20042;-72
2022/03/03 05:01:46;;;;;;;36.38;27.08;;;;;;;1.77;87.71;100322.88;4991718;28;20052;-73
2022/03/03 05:04:13;;;;;;;36.60;26.48;;;;;;;1.79;87.82;100316.94;4989375;28;20508;-72
2022/03/03 05:06:38;;;;;;;42.92;28.60;;;;;;;1.77;87.73;100320.31;4988207;28;20050;-73
2022/03/03 05:09:03;;;;;;;36.97;25.48;;;;;;;1.99;87.65;100329.66;4992703;28;20037;-72
2022/03/03 05:11:29;;;;;;;33.88;20.45;;;;;;;1.93;87.43;100326.88;4978105;28;20047;-72
2022/03/03 05:13:54;;;;;;;38.35;27.83;;;;;;;1.84;87.80;100325.72;4984193;28;20030;-73
2022/03/03 05:16:20;;;;;;;36.60;25.05;;;;;;;1.92;87.12;100323.41;4990136;28;20463;-73
2022/03/03 05:18:45;;;;;;;40.55;27.02;;;;;;;1.94;86.88;100313.97;4984869;28;20018;-72
2022/03/03 05:21:11;;;;;;;38.85;28.52;;;;;;;1.53;87.56;100302.25;5009676;28;20373;-73
2022/03/03 05:23:36;;;;;;;36.25;28.15;;;;;;;1.79;87.63;100316.06;4993120;28;20051;-73
2022/03/03 05:26:02;;;;;;;37.45;26.27;;;;;;;1.13;88.63;100311.19;4987606;28;20074;-72
2022/03/03 05:28:29;;;;;;;43.63;27.92;;;;;;;1.15;90.15;100315.59;4988489;28;20051;-72
2022/03/03 05:30:54;;;;;;;41.05;26.63;;;;;;;1.26;90.46;100327.19;4989802;28;20043;-74
2022/03/03 05:33:21;;;;;;;54.30;38.92;;;;;;;1.43;89.76;100332.94;4989659;28;20026;-72
2022/03/03 05:35:49;;;;;;;76.40;47.92;;;;;;;1.57;88.80;100324.78;4985983;28;20042;-73
2022/03/03 05:38:15;;;;;;;74.47;49.72;;;;;;;1.57;88.79;100319.59;4988025;28;20084;-73
2022/03/03 05:40:40;;;;;;;75.60;50.33;;;;;;;1.67;88.18;100314.81;4988696;28;20078;-75
2022/03/03 05:43:09;;;;;;;75.57;49.97;;;;;;;1.02;90.25;100327.16;4987169;28;20041;-74
2022/03/03 05:45:35;;;;;;;58.08;36.60;;;;;;;1.19;91.19;100335.50;4992429;28;20030;-72
2022/03/03 05:48:01;;;;;;;66.60;42.85;;;;;;;0.55;91.54;100339.16;4991105;28;20034;-75
2022/03/03 05:50:27;;;;;;;63.08;43.00;;;;;;;1.02;91.72;100340.06;4989133;28;20069;-74
2022/03/03 05:52:54;;;;;;;49.47;34.35;;;;;;;1.00;91.40;100327.91;4991318;28;20046;-74
2022/03/03 05:55:20;;;;;;;38.00;23.75;;;;;;;0.88;92.06;100330.94;4992353;28;20049;-74
2022/03/03 05:57:49;;;;;;;48.05;33.17;;;;;;;0.48;92.62;100341.44;4991685;28;23201;-73
2022/03/03 06:00:16;;;;;;;59.40;39.42;;;;;;;0.68;92.98;100337.03;4992742;28;20041;-74
2022/03/03 06:03:29;;;;;;;59.08;36.67;;;;;;;0.48;93.51;100331.97;4991460;28;20126;-73
2022/03/03 06:06:04;;;;;;;49.28;29.67;;;;;;;0.68;93.90;100326.69;4989742;28;20046;-73
2022/03/03 06:08:39;;;;;;;32.88;20.23;;;;;;;0.53;93.76;100338.19;4982399;28;20042;-74
2022/03/03 06:11:10;;;;;;;44.75;29.80;;;;;;;0.48;93.52;100338.84;4990762;28;20076;-73
2022/03/03 06:13:39;;;;;;;29.42;20.65;;;;;;;0.49;93.26;100343.19;4992745;28;20482;-74
2022/03/03 06:16:05;;;;;;;28.27;20.10;;;;;;;0.74;92.76;100347.59;4991588;28;20053;-74
2022/03/03 06:18:33;;;;;;;33.42;21.38;;;;;;;0.84;92.04;100354.88;4990831;28;20030;-73
2022/03/03 06:20:59;;;;;;;48.72;33.95;;;;;;;1.22;91.61;100342.53;4989752;28;20122;-73
2022/03/03 06:23:26;;;;;;;34.22;22.85;;;;;;;1.13;90.55;100342.19;5004648;28;20384;-73
2022/03/03 06:26:06;;;;;;;40.70;21.77;;;;;;;1.42;90.27;100332.88;4989130;28;20058;-72
2022/03/03 06:28:32;;;;;;;33.20;21.90;;;;;;;1.62;89.36;100334.47;4991528;28;21469;-73
2022/03/03 06:30:58;;;;;;;29.83;21.15;;;;;;;1.40;89.16;100345.75;4990642;28;20046;-73
2022/03/03 06:33:25;;;;;;;39.42;27.63;;;;;;;1.30;89.33;100354.00;4991270;28;20034;-73
2022/03/03 06:35:51;;;;;;;38.47;27.25;;;;;;;1.16;90.22;100347.47;4992014;28;20101;-73
2022/03/03 06:38:16;;;;;;;29.48;19.10;;;;;;;1.10;89.79;100342.97;4989902;28;20087;-73
2022/03/03 06:40:42;;;;;;;27.90;20.17;;;;;;;1.04;90.34;100341.00;4989399;28;20077;-72
2022/03/03 06:43:08;;;;;;;38.47;28.80;;;;;;;1.24;89.56;100339.16;4998671;28;20065;-73
2022/03/03 06:45:33;;;;;;;30.60;19.38;;;;;;;1.74;88.66;100336.59;5009586;28;20354;-74
2022/03/03 06:48:40;;;;;;;43.55;28.77;;;;;;;1.85;87.43;100340.44;4991643;28;20037;-74
2022/03/03 06:51:05;;;;;;;33.33;20.02;;;;;;;1.84;87.71;100337.78;4991839;28;20046;-73
2022/03/03 06:53:35;;;;;;;29.63;19.33;;;;;;;2.07;87.05;100359.25;5007940;28;20038;-74
2022/03/03 06:56:06;;;;;;;40.63;28.95;;;;;;;1.87;86.78;100346.53;5010637;28;20041;-74
2022/03/03 06:58:34;;;;;;;40.88;28.15;;;;;;;1.95;86.98;100348.50;5002532;28;20048;-74
2022/03/03 07:01:21;;;;;;;38.63;29.55;;;;;;;1.03;89.51;100359.94;4991531;28;20121;-75
2022/03/03 07:03:47;;;;;;;40.35;29.85;;;;;;;1.06;90.99;100348.81;4980110;28;20156;-74
2022/03/03 07:06:13;;;;;;;32.13;19.50;;;;;;;1.36;90.77;100366.25;4989631;28;20054;-74
2022/03/03 07:08:53;;;;;;;40.83;32.47;;;;;;;1.23;89.76;100352.91;5010003;28;20532;-74
2022/03/03 07:11:19;;;;;;;46.33;31.73;;;;;;;0.94;89.99;100366.47;5005777;28;20042;-74
2022/03/03 07:13:45;;;;;;;40.22;24.42;;;;;;;1.47;90.39;100358.09;5008022;28;20112;-73
2022/03/03 07:16:39;;;;;;;41.92;28.42;;;;;;;1.49;89.48;100360.72;5008214;28;20045;-73
2022/03/03 07:19:07;;;;;;;44.55;25.30;;;;;;;0.91;90.11;100356.88;5008676;28;20508;-73
2022/03/03 07:21:41;;;;;;;52.63;32.35;;;;;;;1.04;90.63;100358.22;5005832;28;20112;-75
2022/03/03 07:24:24;;;;;;;46.10;24.55;;;;;;;1.39;89.86;100349.16;5005166;28;20058;-73
2022/03/03 07:27:07;;;;;;;34.88;21.45;;;;;;;1.98;88.73;100352.06;5010982;28;20042;-80
2022/03/03 07:29:34;;;;;;;50.05;25.58;;;;;;;1.76;87.71;100355.63;4999488;28;20042;-75
2022/03/03 07:32:07;;;;;;;44.83;31.92;;;;;;;2.18;86.96;100350.16;5004102;28;20072;-77
2022/03/03 07:34:35;;;;;;;36.20;23.70;;;;;;;2.40;85.90;100343.94;5003599;28;20045;-78
2022/03/03 07:37:07;;;;;;;34.95;23.55;;;;;;;2.59;85.41;100352.28;5009602;28;20046;-75
2022/03/03 07:39:42;;;;;;;48.25;32.83;;;;;;;2.03;85.44;100347.91;5008403;28;20029;-75
2022/03/03 07:42:26;;;;;;;45.67;34.33;;;;;;;2.20;86.73;100345.91;5010512;28;20064;-75
2022/03/03 07:44:51;;;;;;;38.67;27.35;;;;;;;2.17;86.97;100339.75;5005301;28;20720;-74
2022/03/03 07:47:18;;;;;;;52.80;35.33;;;;;;;2.15;86.02;100357.78;5007845;28;20470;-76
2022/03/03 07:49:45;;;;;;;45.30;34.88;;;;;;;1.95;86.52;100341.63;5008395;28;20053;-74
2022/03/03 07:52:11;;;;;;;44.45;31.70;;;;;;;2.33;84.94;100363.56;5009469;28;20045;-75
2022/03/03 07:54:36;;;;;;;42.17;33.60;;;;;;;2.59;84.53;100354.88;5009584;28;20044;-74
2022/03/03 07:57:04;;;;;;;48.35;32.53;;;;;;;2.28;84.55;100359.97;5009627;28;20138;-74
2022/03/03 07:59:35;;;;;;;51.03;32.55;;;;;;;2.46;83.50;100361.41;5007313;28;20628;-74
2022/03/03 08:02:04;;;;;;;47.58;32.67;;;;;;;2.57;83.27;100359.13;5005252;28;20081;-72
2022/03/03 08:04:32;;;;;;;44.92;32.47;;;;;;;2.96;82.08;100359.47;5009281;28;20488;-73
2022/03/03 08:07:04;;;;;;;44.92;26.52;;;;;;;3.05;81.71;100364.94;5007955;28;20046;-75
2022/03/03 08:09:32;;;;;;;38.70;26.38;;;;;;;3.08;83.36;100370.19;5008552;28;20470;-73
2022/03/03 08:12:19;;;;;;;53.67;36.25;;;;;;;3.14;81.54;100378.16;5009069;28;20033;-74
2022/03/03 08:14:46;;;;;;;40.92;33.13;;;;;;;2.87;82.24;100375.63;5008131;28;20057;-75
2022/03/03 08:17:15;;;;;;;48.33;34.97;;;;;;;3.21;82.42;100376.63;5006209;28;20038;-74
2022/03/03 08:19:43;;;;;;;45.65;35.20;;;;;;;3.34;81.50;100365.75;5009236;28;20137;-74
2022/03/03 08:22:09;;;;;;;53.20;35.97;;;;;;;3.64;79.65;100361.41;5007018;28;20144;-76
2022/03/03 08:24:35;;;;;;;51.15;33.80;;;;;;;3.24;79.72;100363.75;5008428;28;20403;-76
2022/03/03 08:27:03;;;;;;;41.58;31.90;;;;;;;3.44;78.48;100368.63;5009397;28;20108;-78
2022/03/03 08:29:28;;;;;;;48.75;35.40;;;;;;;3.59;78.24;100366.47;5006893;28;21860;-79
2022/03/03 08:31:56;;;;;;;48.20;34.25;;;;;;;3.73;79.43;100364.25;5007258;28;20076;-78
2022/03/03 08:35:00;;;;;;;44.67;32.25;;;;;;;3.80;78.07;100373.94;5008167;28;20671;-75
2022/03/03 08:37:32;;;;;;;;;;;;;;;3.21;77.62;100381.81;4997669;28;20042;-75
2022/03/03 08:40:00;;;;;;;41.40;31.30;;;;;;;3.08;80.08;100385.75;5008617;28;19940;-75
2022/03/03 08:42:34;;;;;;;51.75;34.00;;;;;;;3.27;79.69;100374.19;5008325;28;20095;-73
2022/03/03 08:45:03;;;;;;;48.17;36.80;;;;;;;3.51;79.71;100371.44;4997021;28;20040;-75
2022/03/03 08:47:29;;;;;;;48.17;38.55;;;;;;;3.07;81.25;100365.00;5008832;28;20042;-74
2022/03/03 08:50:13;;;;;;;49.63;37.58;;;;;;;3.61;79.56;100353.53;5022269;28;20128;-75
2022/03/03 08:52:39;;;;;;;;;;;;;;;4.15;77.96;100361.00;5011937;28;20041;-75
2022/03/03 08:55:07;;;;;;;49.95;37.80;;;;;;;4.34;76.89;100354.53;5003756;28;20329;-75
2022/03/03 08:57:58;;;;;;;48.63;35.25;;;;;;;4.44;75.94;100359.97;4989807;28;20513;-76
2022/03/03 09:04:10;;;;;;;39.90;33.35;;;;;;;4.56;75.95;100353.31;5009250;28;20048;-75
2022/03/03 09:06:35;;;;;;;46.13;34.85;;;;;;;4.93;74.37;100352.41;5003736;28;20038;-74
2022/03/03 09:09:01;;;;;;;53.58;36.58;;;;;;;5.33;73.98;100355.84;5003618;28;20040;-75
2022/03/03 09:11:26;;;;;;;54.42;36.03;;;;;;;4.39;74.32;100350.31;5008109;28;20389;-75
2022/03/03 09:13:52;;;;;;;46.22;36.67;;;;;;;4.75;74.86;100360.72;5006507;28;20445;-72
2022/03/03 09:16:18;;;;;;;50.47;33.75;;;;;;;4.41;72.83;100357.31;5008962;28;20500;-75
2022/03/03 09:18:47;;;;;;;56.33;37.85;;;;;;;5.41;71.97;100345.63;5005925;28;20029;-74
2022/03/03 09:21:14;;;;;;;62.50;35.67;;;;;;;5.82;71.54;100354.19;5004898;28;20385;-74
2022/03/03 09:23:40;;;;;;;50.10;34.10;;;;;;;6.03;69.44;100345.91;5008162;28;20057;-75
2022/03/03 09:26:05;;;;;;;51.67;39.60;;;;;;;6.13;69.81;100350.47;5007513;28;20042;-74
2022/03/03 09:28:31;;;;;;;54.97;40.10;;;;;;;6.13;69.20;100354.75;5007683;28;20038;-76
2022/03/03 09:30:56;;;;;;;51.03;37.55;;;;;;;6.25;69.66;100343.66;5003911;28;20042;-75
2022/03/03 09:33:25;;;;;;;54.95;39.47;;;;;;;6.42;70.17;100343.97;5007733;28;20021;-73
2022/03/03 09:35:51;;;;;;;54.05;35.72;;;;;;;5.76;71.05;100337.59;5005554;28;20050;-75
2022/03/03 09:38:16;;;;;;;52.03;38.85;;;;;;;6.24;69.14;100353.22;5006654;28;21053;-76
2022/03/03 09:40:43;;;;;;;46.58;35.70;;;;;;;6.64;70.81;100340.81;5007207;28;20294;-73
2022/03/03 09:43:08;;;;;;;78.88;46.17;;;;;;;7.57;66.76;100340.28;5006172;28;20046;-78
2022/03/03 09:45:36;;;;;;;76.18;43.47;;;;;;;8.19;63.65;100346.97;5009422;28;20084;-87
2022/03/03 09:48:07;;;;;;;54.88;39.75;;;;;;;8.23;63.17;100347.00;5009160;28;20045;-78
2022/03/03 09:50:37;;;;;;;61.92;41.25;;;;;;;8.16;64.03;100344.34;5006420;28;20046;-79
2022/03/03 09:53:16;;;;;;;58.10;43.13;;;;;;;8.13;64.24;100350.41;5009022;28;20056;-81
2022/03/03 09:55:43;;;;;;;53.75;39.83;;;;;;;7.76;63.71;100336.13;4997144;28;20080;-82
2022/03/03 09:58:09;;;;;;;52.40;36.15;;;;;;;6.93;65.08;100351.69;4999492;28;20042;-78
2022/03/03 10:00:40;;;;;;;49.78;36.72;;;;;;;6.93;64.83;100343.84;5007084;28;20528;-77
2022/03/03 10:03:13;;;;;;;56.60;40.78;;;;;;;6.30;67.29;100339.44;4998281;28;20022;-77
2022/03/03 10:05:50;;;;;;;59.47;45.58;;;;;;;6.65;69.09;100341.69;5005316;28;20620;-78
2022/03/03 10:08:25;;;;;;;66.55;44.97;;;;;;;7.53;66.03;100328.91;5007536;28;20046;-79
2022/03/03 10:11:00;;;;;;;68.10;45.50;;;;;;;7.53;66.52;100334.13;5008112;28;20141;-80
2022/03/03 10:13:27;;;;;;;68.45;43.90;;;;;;;7.40;65.24;100340.97;5008447;28;20038;-78
2022/03/03 10:15:59;;;;;;;59.17;44.30;;;;;;;7.67;67.37;100331.66;5013628;28;20044;-81
2022/03/03 10:18:27;;;;;;;84.05;50.42;;;;;;;7.99;65.26;100338.97;4996575;28;20021;-80
2022/03/03 10:20:59;;;;;;;68.72;47.88;;;;;;;7.85;66.16;100341.44;4979473;28;20049;-79
2022/03/03 10:23:34;;;;;;;66.10;44.53;;;;;;;8.63;62.59;100349.09;4987423;28;20151;-80
2022/03/03 10:26:04;;;;;;;63.80;45.45;;;;;;;8.93;63.56;100335.31;5008508;28;20053;-81
2022/03/03 10:28:32;;;;;;;63.78;45.40;;;;;;;8.27;65.81;100339.22;5002376;28;20085;-82
2022/03/03 10:31:00;;;;;;;68.47;47.13;;;;;;;7.27;66.21;100346.88;4995625;28;20156;-76
2022/03/03 10:33:40;;;;;;;65.85;48.03;;;;;;;6.90;69.51;100348.13;5007649;28;20029;-76
2022/03/03 10:36:16;;;;;;;67.32;46.78;;;;;;;6.64;69.44;100347.75;5006951;28;20053;-76
2022/03/03 10:38:49;;;;;;;70.60;46.92;;;;;;;6.74;69.28;100327.06;4999371;28;20040;-77
2022/03/03 10:41:41;;;;;;;72.32;46.13;;;;;;;7.01;68.51;100345.69;4999457;28;20042;-76
2022/03/03 10:44:12;;;;;;;68.75;44.60;;;;;;;6.99;67.86;100337.81;5008269;28;20034;-77
2022/03/03 10:46:41;;;;;;;55.40;44.13;;;;;;;6.62;68.28;100339.03;5011158;28;20383;-77
2022/03/03 10:49:23;;;;;;;53.10;40.38;;;;;;;6.55;68.82;100341.56;5012113;28;20078;-77
2022/03/03 10:51:49;;;;;;;59.35;44.45;;;;;;;6.56;67.38;100334.63;4997070;28;20496;-77
2022/03/03 10:54:15;;;;;;;55.53;42.75;;;;;;;6.73;67.47;100337.47;5008479;28;20526;-76
2022/03/03 10:56:47;;;;;;;64.55;44.42;;;;;;;6.95;67.73;100326.50;5009833;28;20060;-76
2022/03/03 10:59:22;;;;;;;59.08;42.13;;;;;;;6.53;67.07;100344.97;5002575;28;20103;-77
2022/03/03 11:01:48;;;;;;;55.03;38.03;;;;;;;6.84;67.45;100333.28;5009150;28;20042;-77
2022/03/03 11:04:19;;;;;;;63.25;41.75;;;;;;;6.53;68.05;100343.28;5009186;28;20509;-77
2022/03/03 11:06:47;;;;;;;55.58;41.03;;;;;;;6.36;67.98;100328.22;5025541;28;20389;-77
2022/03/03 11:09:15;;;;;;;54.90;37.75;;;;;;;6.38;66.87;100339.56;5004380;28;20037;-76
2022/03/03 11:12:29;;;;;;;49.55;35.13;;;;;;;6.24;67.71;100339.31;5008143;28;20038;-76
2022/03/03 11:14:58;;;;;;;55.78;37.00;;;;;;;6.54;67.18;100331.97;5002677;28;20041;-78
2022/03/03 11:17:24;;;;;;;46.40;37.15;;;;;;;6.29;67.82;100335.94;5000875;28;20046;-75
2022/03/03 11:19:58;;;;;;;49.40;39.22;;;;;;;6.51;67.67;100338.91;5014377;28;20037;-77
2022/03/03 11:22:52;;;;;;;54.95;35.63;;;;;;;6.60;67.20;100338.13;5015592;28;20042;-77
2022/03/03 11:25:36;;;;;;;40.03;32.55;;;;;;;6.07;67.31;100324.28;4997077;28;20146;-77
2022/03/03 11:28:10;;;;;;;42.38;34.33;;;;;;;5.89;68.69;100336.97;5000714;28;20045;-77
2022/03/03 11:30:36;;;;;;;43.83;33.28;;;;;;;5.85;68.59;100327.34;5007770;28;20375;-78
2022/03/03 11:33:17;;;;;;;44.88;33.22;;;;;;;5.99;68.45;100331.09;5005230;28;20032;-77
2022/03/03 11:35:50;;;;;;;45.42;33.10;;;;;;;6.00;69.12;100337.19;5009729;28;20042;-76
2022/03/03 11:38:16;;;;;;;;;;;;;;;6.24;68.02;100339.31;5011286;28;20044;-77
2022/03/03 11:40:55;;;;;;;39.20;32.58;;;;;;;6.28;66.74;100341.13;5008576;28;19917;-78
2022/03/03 11:43:21;;;;;;;49.15;32.85;;;;;;;6.22;67.37;100330.59;5004510;28;20034;-76